sensor_id;sensor_type;location;lat;lon;timestamp;P1;durP1;ratioP1;P2;durP2;ratioP2
68921;SDS011;55959;51.244;5.724;2022-08-11T00:00:05;2.58;;;2.35;;
68921;SDS011;55959;51.244;5.724;2022-08-11T00:02:35;2.20;;;2.00;;
68921;SDS011;55959;51.244;5.724;2022-08-11T00:05:12;2.75;;;2.22;;
68921;SDS011;55959;51.244;5.724;2022-08-11T00:07:43;3.28;;;2.03;;
68921;SDS011;55959;51.244;5.724;2022-08-11T00:10:27;2.03;;;1.80;;
68921;SDS011;55959;51.244;5.724;2022-08-11T00:12:59;2.42;;;1.70;;
68921;SDS011;55959;51.244;5.724;2022-08-11T00:15:37;3.03;;;1.92;;
68921;SDS011;55959;51.244;5.724;2022-08-11T00:18:07;2.75;;;1.85;;
68921;SDS011;55959;51.244;5.724;2022-08-11T00:20:35;1.90;;;1.70;;
68921;SDS011;55959;51.244;5.724;2022-08-11T00:23:10;4.68;;;2.30;;
68921;SDS011;55959;51.244;5.724;2022-08-11T00:25:44;2.53;;;2.15;;
68921;SDS011;55959;51.244;5.724;2022-08-11T00:28:26;2.60;;;2.05;;
68921;SDS011;55959;51.244;5.724;2022-08-11T00:31:04;2.20;;;1.95;;
68921;SDS011;55959;51.244;5.724;2022-08-11T00:33:33;2.10;;;1.90;;
68921;SDS011;55959;51.244;5.724;2022-08-11T00:36:09;4.55;;;2.15;;
68921;SDS011;55959;51.244;5.724;2022-08-11T00:38:40;2.10;;;1.90;;
68921;SDS011;55959;51.244;5.724;2022-08-11T00:44:26;3.70;;;2.30;;
68921;SDS011;55959;51.244;5.724;2022-08-11T00:47:41;2.58;;;2.30;;
68921;SDS011;55959;51.244;5.724;2022-08-11T01:07:32;5.15;;;2.95;;
68921;SDS011;55959;51.244;5.724;2022-08-11T01:10:43;3.03;;;2.72;;
68921;SDS011;55959;51.244;5.724;2022-08-11T01:14:14;4.65;;;3.42;;
68921;SDS011;55959;51.244;5.724;2022-08-11T01:16:59;3.03;;;2.70;;
68921;SDS011;55959;51.244;5.724;2022-08-11T01:27:05;4.97;;;3.08;;
68921;SDS011;55959;51.244;5.724;2022-08-11T01:54:05;3.80;;;3.45;;
68921;SDS011;55959;51.244;5.724;2022-08-11T01:59:55;3.92;;;3.42;;
68921;SDS011;55959;51.244;5.724;2022-08-11T02:08:41;4.80;;;3.80;;
68921;SDS011;55959;51.244;5.724;2022-08-11T02:11:26;4.35;;;3.08;;
68921;SDS011;55959;51.244;5.724;2022-08-11T02:25:52;3.22;;;2.88;;
68921;SDS011;55959;51.244;5.724;2022-08-11T02:28:39;5.47;;;3.47;;
68921;SDS011;55959;51.244;5.724;2022-08-11T02:37:49;3.10;;;2.80;;
68921;SDS011;55959;51.244;5.724;2022-08-11T02:44:19;3.40;;;3.00;;
68921;SDS011;55959;51.244;5.724;2022-08-11T03:01:11;3.78;;;3.30;;
68921;SDS011;55959;51.244;5.724;2022-08-11T03:03:54;4.20;;;2.63;;
68921;SDS011;55959;51.244;5.724;2022-08-11T03:06:58;3.75;;;3.22;;
68921;SDS011;55959;51.244;5.724;2022-08-11T03:09:59;3.78;;;3.00;;
68921;SDS011;55959;51.244;5.724;2022-08-11T03:12:57;4.60;;;2.95;;
68921;SDS011;55959;51.244;5.724;2022-08-11T03:21:58;2.90;;;2.70;;
68921;SDS011;55959;51.244;5.724;2022-08-11T03:24:49;3.75;;;3.35;;
68921;SDS011;55959;51.244;5.724;2022-08-11T03:40:03;3.20;;;2.90;;
68921;SDS011;55959;51.244;5.724;2022-08-11T03:46:05;3.13;;;2.55;;
68921;SDS011;55959;51.244;5.724;2022-08-11T03:51:51;4.47;;;2.80;;
68921;SDS011;55959;51.244;5.724;2022-08-11T03:57:46;4.05;;;2.92;;
68921;SDS011;55959;51.244;5.724;2022-08-11T04:21:50;3.30;;;2.90;;
68921;SDS011;55959;51.244;5.724;2022-08-11T04:27:52;3.60;;;2.92;;
68921;SDS011;55959;51.244;5.724;2022-08-11T04:33:39;5.43;;;3.00;;
68921;SDS011;55959;51.244;5.724;2022-08-11T04:42:50;3.58;;;2.60;;
68921;SDS011;55959;51.244;5.724;2022-08-11T04:45:55;4.93;;;3.42;;
68921;SDS011;55959;51.244;5.724;2022-08-11T04:55:06;6.28;;;3.25;;
68921;SDS011;55959;51.244;5.724;2022-08-11T05:10:42;3.50;;;3.20;;
68921;SDS011;55959;51.244;5.724;2022-08-11T05:13:43;3.97;;;3.58;;
68921;SDS011;55959;51.244;5.724;2022-08-11T05:16:45;4.35;;;3.50;;
68921;SDS011;55959;51.244;5.724;2022-08-11T05:19:35;3.55;;;3.25;;
68921;SDS011;55959;51.244;5.724;2022-08-11T05:22:20;3.85;;;3.38;;
68921;SDS011;55959;51.244;5.724;2022-08-11T05:25:24;3.80;;;3.50;;
68921;SDS011;55959;51.244;5.724;2022-08-11T05:28:34;4.68;;;4.22;;
68921;SDS011;55959;51.244;5.724;2022-08-11T05:31:45;5.55;;;4.28;;
68921;SDS011;55959;51.244;5.724;2022-08-11T05:34:43;6.05;;;4.40;;
68921;SDS011;55959;51.244;5.724;2022-08-11T05:40:11;4.75;;;3.90;;
68921;SDS011;55959;51.244;5.724;2022-08-11T05:42:58;8.48;;;4.90;;
68921;SDS011;55959;51.244;5.724;2022-08-11T05:46:04;5.78;;;5.03;;
68921;SDS011;55959;51.244;5.724;2022-08-11T05:48:50;6.30;;;4.80;;
68921;SDS011;55959;51.244;5.724;2022-08-11T05:51:36;5.50;;;4.72;;
68921;SDS011;55959;51.244;5.724;2022-08-11T05:54:27;4.65;;;4.25;;
68921;SDS011;55959;51.244;5.724;2022-08-11T05:57:22;5.18;;;4.10;;
68921;SDS011;55959;51.244;5.724;2022-08-11T05:59:57;4.93;;;4.15;;
68921;SDS011;55959;51.244;5.724;2022-08-11T06:02:25;5.68;;;4.13;;
68921;SDS011;55959;51.244;5.724;2022-08-11T06:04:58;5.53;;;4.40;;
68921;SDS011;55959;51.244;5.724;2022-08-11T06:07:26;5.10;;;4.40;;
68921;SDS011;55959;51.244;5.724;2022-08-11T06:09:54;7.63;;;4.80;;
68921;SDS011;55959;51.244;5.724;2022-08-11T06:12:23;7.55;;;4.70;;
68921;SDS011;55959;51.244;5.724;2022-08-11T06:15:04;5.55;;;4.20;;
68921;SDS011;55959;51.244;5.724;2022-08-11T06:17:35;4.43;;;4.03;;
68921;SDS011;55959;51.244;5.724;2022-08-11T06:20:11;5.38;;;4.00;;
68921;SDS011;55959;51.244;5.724;2022-08-11T06:22:38;3.38;;;3.08;;
68921;SDS011;55959;51.244;5.724;2022-08-11T06:25:09;5.00;;;3.42;;
68921;SDS011;55959;51.244;5.724;2022-08-11T06:27:36;7.03;;;3.92;;
68921;SDS011;55959;51.244;5.724;2022-08-11T06:30:04;5.82;;;4.22;;
68921;SDS011;55959;51.244;5.724;2022-08-11T06:32:38;4.47;;;3.85;;
68921;SDS011;55959;51.244;5.724;2022-08-11T06:41:45;4.30;;;3.90;;
68921;SDS011;55959;51.244;5.724;2022-08-11T06:44:31;4.47;;;3.72;;
68921;SDS011;55959;51.244;5.724;2022-08-11T06:47:06;3.30;;;3.00;;
68921;SDS011;55959;51.244;5.724;2022-08-11T06:49:44;5.22;;;4.55;;
68921;SDS011;55959;51.244;5.724;2022-08-11T06:52:36;4.70;;;3.42;;
68921;SDS011;55959;51.244;5.724;2022-08-11T06:55:05;5.88;;;3.28;;
68921;SDS011;55959;51.244;5.724;2022-08-11T06:58:20;5.13;;;3.28;;
68921;SDS011;55959;51.244;5.724;2022-08-11T07:01:11;3.50;;;2.78;;
68921;SDS011;55959;51.244;5.724;2022-08-11T07:03:44;4.45;;;2.97;;
68921;SDS011;55959;51.244;5.724;2022-08-11T07:06:20;3.88;;;2.88;;
68921;SDS011;55959;51.244;5.724;2022-08-11T07:09:06;3.25;;;2.95;;
68921;SDS011;55959;51.244;5.724;2022-08-11T07:12:37;3.67;;;3.38;;
68921;SDS011;55959;51.244;5.724;2022-08-11T07:15:28;6.40;;;3.25;;
68921;SDS011;55959;51.244;5.724;2022-08-11T07:18:07;5.32;;;2.90;;
68921;SDS011;55959;51.244;5.724;2022-08-11T07:21:06;5.32;;;2.92;;
68921;SDS011;55959;51.244;5.724;2022-08-11T07:24:13;4.45;;;2.88;;
68921;SDS011;55959;51.244;5.724;2022-08-11T07:27:05;5.10;;;3.13;;
68921;SDS011;55959;51.244;5.724;2022-08-11T07:30:00;5.57;;;2.83;;
68921;SDS011;55959;51.244;5.724;2022-08-11T07:32:31;4.20;;;3.03;;
68921;SDS011;55959;51.244;5.724;2022-08-11T07:35:19;4.93;;;3.17;;
68921;SDS011;55959;51.244;5.724;2022-08-11T07:37:55;5.05;;;2.67;;
68921;SDS011;55959;51.244;5.724;2022-08-11T07:40:25;4.60;;;2.80;;
68921;SDS011;55959;51.244;5.724;2022-08-11T07:42:51;4.32;;;2.90;;
68921;SDS011;55959;51.244;5.724;2022-08-11T07:45:19;2.72;;;2.30;;
68921;SDS011;55959;51.244;5.724;2022-08-11T07:48:05;4.07;;;3.10;;
68921;SDS011;55959;51.244;5.724;2022-08-11T07:50:52;5.93;;;2.83;;
68921;SDS011;55959;51.244;5.724;2022-08-11T07:53:37;2.63;;;2.42;;
68921;SDS011;55959;51.244;5.724;2022-08-11T07:56:04;4.53;;;2.90;;
68921;SDS011;55959;51.244;5.724;2022-08-11T07:58:30;3.03;;;2.75;;
68921;SDS011;55959;51.244;5.724;2022-08-11T08:01:18;3.88;;;3.42;;
68921;SDS011;55959;51.244;5.724;2022-08-11T08:04:07;5.80;;;3.28;;
68921;SDS011;55959;51.244;5.724;2022-08-11T08:06:55;3.80;;;3.40;;
68921;SDS011;55959;51.244;5.724;2022-08-11T08:09:40;3.95;;;2.85;;
68921;SDS011;55959;51.244;5.724;2022-08-11T08:12:27;3.80;;;2.83;;
68921;SDS011;55959;51.244;5.724;2022-08-11T08:15:13;4.07;;;2.90;;
68921;SDS011;55959;51.244;5.724;2022-08-11T08:18:00;3.45;;;2.60;;
68921;SDS011;55959;51.244;5.724;2022-08-11T08:20:32;5.80;;;3.20;;
68921;SDS011;55959;51.244;5.724;2022-08-11T08:23:09;2.97;;;2.60;;
68921;SDS011;55959;51.244;5.724;2022-08-11T08:25:37;4.53;;;3.13;;
68921;SDS011;55959;51.244;5.724;2022-08-11T08:28:08;4.38;;;2.58;;
68921;SDS011;55959;51.244;5.724;2022-08-11T08:30:41;4.57;;;2.50;;
68921;SDS011;55959;51.244;5.724;2022-08-11T08:33:20;3.75;;;2.80;;
68921;SDS011;55959;51.244;5.724;2022-08-11T08:35:57;6.88;;;3.22;;
68921;SDS011;55959;51.244;5.724;2022-08-11T08:41:14;3.13;;;2.58;;
68921;SDS011;55959;51.244;5.724;2022-08-11T08:43:47;3.58;;;3.00;;
68921;SDS011;55959;51.244;5.724;2022-08-11T08:46:21;2.42;;;2.22;;
68921;SDS011;55959;51.244;5.724;2022-08-11T08:48:53;2.45;;;2.25;;
68921;SDS011;55959;51.244;5.724;2022-08-11T08:51:20;3.47;;;2.75;;
68921;SDS011;55959;51.244;5.724;2022-08-11T08:53:59;3.63;;;3.20;;
68921;SDS011;55959;51.244;5.724;2022-08-11T08:56:36;4.32;;;2.65;;
68921;SDS011;55959;51.244;5.724;2022-08-11T08:59:04;3.45;;;2.80;;
68921;SDS011;55959;51.244;5.724;2022-08-11T09:01:41;5.32;;;2.83;;
68921;SDS011;55959;51.244;5.724;2022-08-11T09:04:14;2.67;;;2.42;;
68921;SDS011;55959;51.244;5.724;2022-08-11T09:06:42;3.38;;;2.60;;
68921;SDS011;55959;51.244;5.724;2022-08-11T09:09:08;4.35;;;2.78;;
68921;SDS011;55959;51.244;5.724;2022-08-11T09:11:36;4.07;;;2.70;;
68921;SDS011;55959;51.244;5.724;2022-08-11T09:14:24;5.35;;;3.05;;
68921;SDS011;55959;51.244;5.724;2022-08-11T09:17:11;5.85;;;2.42;;
68921;SDS011;55959;51.244;5.724;2022-08-11T09:19:38;3.97;;;2.97;;
68921;SDS011;55959;51.244;5.724;2022-08-11T09:22:05;5.47;;;2.92;;
68921;SDS011;55959;51.244;5.724;2022-08-11T09:24:49;3.17;;;2.35;;
68921;SDS011;55959;51.244;5.724;2022-08-11T09:27:34;2.83;;;2.63;;
68921;SDS011;55959;51.244;5.724;2022-08-11T09:30:04;3.25;;;2.60;;
68921;SDS011;55959;51.244;5.724;2022-08-11T09:32:31;3.08;;;2.80;;
68921;SDS011;55959;51.244;5.724;2022-08-11T09:34:58;2.88;;;2.67;;
68921;SDS011;55959;51.244;5.724;2022-08-11T09:37:27;2.90;;;2.33;;
68921;SDS011;55959;51.244;5.724;2022-08-11T09:40:13;3.60;;;2.70;;
68921;SDS011;55959;51.244;5.724;2022-08-11T09:42:56;4.70;;;2.95;;
68921;SDS011;55959;51.244;5.724;2022-08-11T09:45:58;3.78;;;3.00;;
68921;SDS011;55959;51.244;5.724;2022-08-11T09:48:26;3.42;;;3.03;;
68921;SDS011;55959;51.244;5.724;2022-08-11T09:50:56;3.05;;;2.85;;
68921;SDS011;55959;51.244;5.724;2022-08-11T09:53:26;4.15;;;2.40;;
68921;SDS011;55959;51.244;5.724;2022-08-11T09:55:56;3.15;;;2.85;;
68921;SDS011;55959;51.244;5.724;2022-08-11T09:58:23;4.32;;;2.67;;
68921;SDS011;55959;51.244;5.724;2022-08-11T10:00:49;3.45;;;2.60;;
68921;SDS011;55959;51.244;5.724;2022-08-11T10:03:19;3.75;;;2.70;;
68921;SDS011;55959;51.244;5.724;2022-08-11T10:06:06;5.93;;;3.00;;
68921;SDS011;55959;51.244;5.724;2022-08-11T10:08:51;2.90;;;2.53;;
68921;SDS011;55959;51.244;5.724;2022-08-11T10:11:20;3.83;;;3.30;;
68921;SDS011;55959;51.244;5.724;2022-08-11T10:13:48;2.75;;;2.55;;
68921;SDS011;55959;51.244;5.724;2022-08-11T10:16:36;3.40;;;2.67;;
68921;SDS011;55959;51.244;5.724;2022-08-11T10:19:05;3.50;;;2.53;;
68921;SDS011;55959;51.244;5.724;2022-08-11T10:21:37;3.00;;;2.55;;
68921;SDS011;55959;51.244;5.724;2022-08-11T10:24:08;2.80;;;2.50;;
68921;SDS011;55959;51.244;5.724;2022-08-11T10:26:54;3.22;;;2.67;;
68921;SDS011;55959;51.244;5.724;2022-08-11T10:29:27;3.67;;;2.70;;
68921;SDS011;55959;51.244;5.724;2022-08-11T10:32:25;4.70;;;2.70;;
68921;SDS011;55959;51.244;5.724;2022-08-11T10:35:13;2.80;;;2.45;;
68921;SDS011;55959;51.244;5.724;2022-08-11T10:37:41;2.78;;;2.58;;
68921;SDS011;55959;51.244;5.724;2022-08-11T10:40:12;3.90;;;2.83;;
68921;SDS011;55959;51.244;5.724;2022-08-11T10:42:41;3.30;;;2.75;;
68921;SDS011;55959;51.244;5.724;2022-08-11T10:45:27;2.63;;;2.42;;
68921;SDS011;55959;51.244;5.724;2022-08-11T10:48:14;2.80;;;2.40;;
68921;SDS011;55959;51.244;5.724;2022-08-11T10:50:43;3.63;;;2.30;;
68921;SDS011;55959;51.244;5.724;2022-08-11T10:53:30;3.35;;;2.70;;
68921;SDS011;55959;51.244;5.724;2022-08-11T10:56:15;4.57;;;2.70;;
68921;SDS011;55959;51.244;5.724;2022-08-11T10:59:01;3.45;;;2.30;;
68921;SDS011;55959;51.244;5.724;2022-08-11T11:01:32;3.60;;;2.70;;
68921;SDS011;55959;51.244;5.724;2022-08-11T11:04:11;2.60;;;2.35;;
68921;SDS011;55959;51.244;5.724;2022-08-11T11:06:49;7.95;;;3.60;;
68921;SDS011;55959;51.244;5.724;2022-08-11T11:09:29;6.25;;;2.80;;
68921;SDS011;55959;51.244;5.724;2022-08-11T11:12:10;3.45;;;2.40;;
68921;SDS011;55959;51.244;5.724;2022-08-11T11:15:02;2.60;;;2.40;;
68921;SDS011;55959;51.244;5.724;2022-08-11T11:17:53;3.65;;;2.25;;
68921;SDS011;55959;51.244;5.724;2022-08-11T11:37:21;2.85;;;2.28;;
68921;SDS011;55959;51.244;5.724;2022-08-11T11:39:47;3.70;;;2.50;;
68921;SDS011;55959;51.244;5.724;2022-08-11T11:42:14;4.40;;;2.42;;
68921;SDS011;55959;51.244;5.724;2022-08-11T11:44:42;2.85;;;2.53;;
68921;SDS011;55959;51.244;5.724;2022-08-11T11:47:13;3.83;;;2.50;;
68921;SDS011;55959;51.244;5.724;2022-08-11T11:49:44;2.97;;;2.50;;
68921;SDS011;55959;51.244;5.724;2022-08-11T11:52:13;3.42;;;2.40;;
68921;SDS011;55959;51.244;5.724;2022-08-11T11:54:43;2.65;;;1.90;;
68921;SDS011;55959;51.244;5.724;2022-08-11T11:57:14;2.88;;;2.22;;
68921;SDS011;55959;51.244;5.724;2022-08-11T12:00:03;2.25;;;2.05;;
68921;SDS011;55959;51.244;5.724;2022-08-11T12:02:50;4.40;;;1.95;;
68921;SDS011;55959;51.244;5.724;2022-08-11T12:05:16;3.45;;;2.13;;
68921;SDS011;55959;51.244;5.724;2022-08-11T12:07:43;2.50;;;2.30;;
68921;SDS011;55959;51.244;5.724;2022-08-11T12:13:36;4.13;;;2.33;;
68921;SDS011;55959;51.244;5.724;2022-08-11T12:16:12;2.22;;;2.00;;
68921;SDS011;55959;51.244;5.724;2022-08-11T12:18:41;3.75;;;2.28;;
68921;SDS011;55959;51.244;5.724;2022-08-11T12:21:10;3.63;;;2.28;;
68921;SDS011;55959;51.244;5.724;2022-08-11T12:23:39;2.65;;;2.45;;
68921;SDS011;55959;51.244;5.724;2022-08-11T12:26:26;4.75;;;2.40;;
68921;SDS011;55959;51.244;5.724;2022-08-11T12:29:12;5.32;;;2.20;;
68921;SDS011;55959;51.244;5.724;2022-08-11T12:31:40;3.33;;;2.45;;
68921;SDS011;55959;51.244;5.724;2022-08-11T12:34:08;3.08;;;2.42;;
68921;SDS011;55959;51.244;5.724;2022-08-11T12:36:38;2.50;;;2.30;;
68921;SDS011;55959;51.244;5.724;2022-08-11T12:39:06;3.03;;;2.45;;
68921;SDS011;55959;51.244;5.724;2022-08-11T12:41:35;2.83;;;1.98;;
68921;SDS011;55959;51.244;5.724;2022-08-11T12:44:25;3.97;;;2.67;;
68921;SDS011;55959;51.244;5.724;2022-08-11T12:47:12;2.13;;;1.90;;
68921;SDS011;55959;51.244;5.724;2022-08-11T12:49:45;2.30;;;2.10;;
68921;SDS011;55959;51.244;5.724;2022-08-11T12:52:41;2.40;;;2.22;;
68921;SDS011;55959;51.244;5.724;2022-08-11T12:55:12;2.53;;;2.33;;
68921;SDS011;55959;51.244;5.724;2022-08-11T12:58:01;2.20;;;2.10;;
68921;SDS011;55959;51.244;5.724;2022-08-11T13:00:41;3.58;;;2.42;;
68921;SDS011;55959;51.244;5.724;2022-08-11T13:03:27;2.28;;;2.08;;
68921;SDS011;55959;51.244;5.724;2022-08-11T13:06:12;4.50;;;2.50;;
68921;SDS011;55959;51.244;5.724;2022-08-11T13:08:39;3.00;;;2.20;;
68921;SDS011;55959;51.244;5.724;2022-08-11T13:11:07;3.55;;;2.42;;
68921;SDS011;55959;51.244;5.724;2022-08-11T13:13:52;2.63;;;2.42;;
68921;SDS011;55959;51.244;5.724;2022-08-11T13:16:21;2.65;;;2.40;;
68921;SDS011;55959;51.244;5.724;2022-08-11T13:18:50;4.63;;;2.20;;
68921;SDS011;55959;51.244;5.724;2022-08-11T13:21:17;2.75;;;2.28;;
68921;SDS011;55959;51.244;5.724;2022-08-11T13:23:43;2.80;;;2.50;;
68921;SDS011;55959;51.244;5.724;2022-08-11T13:26:09;3.08;;;2.78;;
68921;SDS011;55959;51.244;5.724;2022-08-11T13:28:36;3.03;;;2.10;;
68921;SDS011;55959;51.244;5.724;2022-08-11T13:31:03;2.40;;;2.20;;
68921;SDS011;55959;51.244;5.724;2022-08-11T13:33:40;2.85;;;2.35;;
68921;SDS011;55959;51.244;5.724;2022-08-11T13:36:09;4.82;;;2.55;;
68921;SDS011;55959;51.244;5.724;2022-08-11T13:38:36;3.45;;;2.75;;
68921;SDS011;55959;51.244;5.724;2022-08-11T13:41:05;4.00;;;2.50;;
68921;SDS011;55959;51.244;5.724;2022-08-11T13:43:51;2.35;;;2.15;;
68921;SDS011;55959;51.244;5.724;2022-08-11T13:46:20;2.35;;;2.15;;
68921;SDS011;55959;51.244;5.724;2022-08-11T13:48:51;2.67;;;2.30;;
68921;SDS011;55959;51.244;5.724;2022-08-11T13:51:20;2.55;;;2.17;;
68921;SDS011;55959;51.244;5.724;2022-08-11T13:53:55;2.97;;;2.35;;
68921;SDS011;55959;51.244;5.724;2022-08-11T13:56:49;2.17;;;1.98;;
68921;SDS011;55959;51.244;5.724;2022-08-11T13:59:20;2.33;;;1.98;;
68921;SDS011;55959;51.244;5.724;2022-08-11T14:01:48;2.50;;;2.30;;
68921;SDS011;55959;51.244;5.724;2022-08-11T14:04:25;3.33;;;2.50;;
68921;SDS011;55959;51.244;5.724;2022-08-11T14:06:57;2.70;;;2.50;;
68921;SDS011;55959;51.244;5.724;2022-08-11T14:09:31;2.50;;;2.30;;
68921;SDS011;55959;51.244;5.724;2022-08-11T14:12:02;3.17;;;2.40;;
68921;SDS011;55959;51.244;5.724;2022-08-11T14:14:58;2.13;;;1.92;;
68921;SDS011;55959;51.244;5.724;2022-08-11T14:17:28;2.90;;;2.60;;
68921;SDS011;55959;51.244;5.724;2022-08-11T14:19:59;2.95;;;2.38;;
68921;SDS011;55959;51.244;5.724;2022-08-11T14:22:30;3.00;;;2.20;;
68921;SDS011;55959;51.244;5.724;2022-08-11T14:24:57;2.83;;;2.50;;
68921;SDS011;55959;51.244;5.724;2022-08-11T14:27:23;2.45;;;2.25;;
68921;SDS011;55959;51.244;5.724;2022-08-11T14:29:55;3.75;;;2.55;;
68921;SDS011;55959;51.244;5.724;2022-08-11T14:32:22;3.30;;;2.05;;
68921;SDS011;55959;51.244;5.724;2022-08-11T14:34:49;2.55;;;2.35;;
68921;SDS011;55959;51.244;5.724;2022-08-11T14:37:19;2.92;;;2.63;;
68921;SDS011;55959;51.244;5.724;2022-08-11T14:39:50;2.55;;;2.20;;
68921;SDS011;55959;51.244;5.724;2022-08-11T14:42:19;2.67;;;2.47;;
68921;SDS011;55959;51.244;5.724;2022-08-11T14:45:11;2.70;;;2.50;;
68921;SDS011;55959;51.244;5.724;2022-08-11T14:48:01;2.67;;;2.03;;
68921;SDS011;55959;51.244;5.724;2022-08-11T14:50:30;2.72;;;2.33;;
68921;SDS011;55959;51.244;5.724;2022-08-11T14:52:58;3.95;;;2.50;;
68921;SDS011;55959;51.244;5.724;2022-08-11T14:55:30;3.60;;;2.60;;
68921;SDS011;55959;51.244;5.724;2022-08-11T14:58:23;2.45;;;2.10;;
68921;SDS011;55959;51.244;5.724;2022-08-11T15:00:53;3.35;;;2.20;;
68921;SDS011;55959;51.244;5.724;2022-08-11T15:03:25;2.58;;;2.38;;
68921;SDS011;55959;51.244;5.724;2022-08-11T15:05:54;3.72;;;2.85;;
68921;SDS011;55959;51.244;5.724;2022-08-11T15:08:31;3.75;;;3.00;;
68921;SDS011;55959;51.244;5.724;2022-08-11T15:11:19;2.92;;;2.72;;
68921;SDS011;55959;51.244;5.724;2022-08-11T15:14:07;4.40;;;2.70;;
68921;SDS011;55959;51.244;5.724;2022-08-11T15:16:36;4.22;;;2.60;;
68921;SDS011;55959;51.244;5.724;2022-08-11T15:19:24;4.05;;;2.45;;
68921;SDS011;55959;51.244;5.724;2022-08-11T15:21:52;4.43;;;2.75;;
68921;SDS011;55959;51.244;5.724;2022-08-11T15:24:37;3.53;;;2.53;;
68921;SDS011;55959;51.244;5.724;2022-08-11T15:27:08;2.85;;;2.65;;
68921;SDS011;55959;51.244;5.724;2022-08-11T15:29:58;5.47;;;2.70;;
68921;SDS011;55959;51.244;5.724;2022-08-11T15:32:44;3.30;;;3.00;;
68921;SDS011;55959;51.244;5.724;2022-08-11T15:35:30;3.75;;;2.75;;
68921;SDS011;55959;51.244;5.724;2022-08-11T15:38:18;3.85;;;2.90;;
68921;SDS011;55959;51.244;5.724;2022-08-11T15:40:46;2.72;;;2.53;;
68921;SDS011;55959;51.244;5.724;2022-08-11T15:43:45;4.38;;;2.90;;
68921;SDS011;55959;51.244;5.724;2022-08-11T15:46:41;4.07;;;2.45;;
68921;SDS011;55959;51.244;5.724;2022-08-11T15:49:12;2.70;;;2.50;;
68921;SDS011;55959;51.244;5.724;2022-08-11T15:51:44;5.32;;;2.90;;
68921;SDS011;55959;51.244;5.724;2022-08-11T15:54:22;4.18;;;3.42;;
68921;SDS011;55959;51.244;5.724;2022-08-11T15:56:52;4.80;;;2.95;;
68921;SDS011;55959;51.244;5.724;2022-08-11T15:59:22;2.92;;;2.67;;
68921;SDS011;55959;51.244;5.724;2022-08-11T16:02:07;6.63;;;2.95;;
68921;SDS011;55959;51.244;5.724;2022-08-11T16:04:57;21.40;;;5.35;;
68921;SDS011;55959;51.244;5.724;2022-08-11T16:07:26;38.83;;;7.55;;
68921;SDS011;55959;51.244;5.724;2022-08-11T16:10:05;24.17;;;7.07;;
68921;SDS011;55959;51.244;5.724;2022-08-11T16:12:37;57.83;;;11.13;;
68921;SDS011;55959;51.244;5.724;2022-08-11T16:15:27;6.78;;;3.55;;
68921;SDS011;55959;51.244;5.724;2022-08-11T16:18:15;2.90;;;2.58;;
68921;SDS011;55959;51.244;5.724;2022-08-11T16:20:43;3.60;;;2.92;;
68921;SDS011;55959;51.244;5.724;2022-08-11T16:23:10;2.88;;;2.50;;
68921;SDS011;55959;51.244;5.724;2022-08-11T16:25:39;3.10;;;2.55;;
68921;SDS011;55959;51.244;5.724;2022-08-11T16:28:06;3.08;;;2.80;;
68921;SDS011;55959;51.244;5.724;2022-08-11T16:30:39;3.70;;;2.75;;
68921;SDS011;55959;51.244;5.724;2022-08-11T16:33:07;3.15;;;2.38;;
68921;SDS011;55959;51.244;5.724;2022-08-11T16:35:35;6.63;;;3.08;;
68921;SDS011;55959;51.244;5.724;2022-08-11T16:38:23;4.03;;;2.60;;
68921;SDS011;55959;51.244;5.724;2022-08-11T16:41:02;3.00;;;2.70;;
68921;SDS011;55959;51.244;5.724;2022-08-11T16:43:38;3.78;;;2.80;;
68921;SDS011;55959;51.244;5.724;2022-08-11T16:46:29;2.97;;;2.72;;
68921;SDS011;55959;51.244;5.724;2022-08-11T16:51:42;3.22;;;2.17;;
68921;SDS011;55959;51.244;5.724;2022-08-11T16:54:09;3.72;;;2.75;;
68921;SDS011;55959;51.244;5.724;2022-08-11T16:56:37;4.38;;;2.83;;
68921;SDS011;55959;51.244;5.724;2022-08-11T16:59:17;2.50;;;2.30;;
68921;SDS011;55959;51.244;5.724;2022-08-11T17:02:07;3.70;;;2.63;;
68921;SDS011;55959;51.244;5.724;2022-08-11T17:04:40;4.22;;;2.65;;
68921;SDS011;55959;51.244;5.724;2022-08-11T17:07:36;3.13;;;2.83;;
68921;SDS011;55959;51.244;5.724;2022-08-11T17:10:34;3.00;;;2.67;;
68921;SDS011;55959;51.244;5.724;2022-08-11T17:13:45;2.55;;;2.35;;
68921;SDS011;55959;51.244;5.724;2022-08-11T17:16:25;2.58;;;2.38;;
68921;SDS011;55959;51.244;5.724;2022-08-11T17:18:58;4.13;;;2.60;;
68921;SDS011;55959;51.244;5.724;2022-08-11T17:21:32;2.83;;;2.63;;
68921;SDS011;55959;51.244;5.724;2022-08-11T17:24:22;2.75;;;2.33;;
68921;SDS011;55959;51.244;5.724;2022-08-11T17:26:51;2.65;;;2.22;;
68921;SDS011;55959;51.244;5.724;2022-08-11T17:29:27;2.60;;;2.40;;
68921;SDS011;55959;51.244;5.724;2022-08-11T17:32:16;3.65;;;2.47;;
68921;SDS011;55959;51.244;5.724;2022-08-11T17:35:10;2.30;;;2.10;;
68921;SDS011;55959;51.244;5.724;2022-08-11T17:38:07;2.75;;;2.42;;
68921;SDS011;55959;51.244;5.724;2022-08-11T17:40:42;4.20;;;2.60;;
68921;SDS011;55959;51.244;5.724;2022-08-11T17:43:30;2.85;;;2.45;;
68921;SDS011;55959;51.244;5.724;2022-08-11T17:46:16;3.78;;;2.00;;
68921;SDS011;55959;51.244;5.724;2022-08-11T17:49:01;2.72;;;2.10;;
68921;SDS011;55959;51.244;5.724;2022-08-11T17:51:32;2.60;;;2.40;;
68921;SDS011;55959;51.244;5.724;2022-08-11T17:54:18;11.88;;;3.70;;
68921;SDS011;55959;51.244;5.724;2022-08-11T17:57:04;4.63;;;2.50;;
68921;SDS011;55959;51.244;5.724;2022-08-11T17:59:50;3.33;;;2.67;;
68921;SDS011;55959;51.244;5.724;2022-08-11T18:05:21;2.95;;;2.25;;
68921;SDS011;55959;51.244;5.724;2022-08-11T18:07:52;2.72;;;2.00;;
68921;SDS011;55959;51.244;5.724;2022-08-11T18:10:39;2.30;;;2.10;;
68921;SDS011;55959;51.244;5.724;2022-08-11T18:13:25;1.98;;;1.88;;
68921;SDS011;55959;51.244;5.724;2022-08-11T18:16:13;2.58;;;2.17;;
68921;SDS011;55959;51.244;5.724;2022-08-11T18:18:57;2.50;;;2.22;;
68921;SDS011;55959;51.244;5.724;2022-08-11T18:21:42;3.00;;;1.90;;
68921;SDS011;55959;51.244;5.724;2022-08-11T18:24:29;2.60;;;2.05;;
68921;SDS011;55959;51.244;5.724;2022-08-11T18:27:21;2.28;;;2.08;;
68921;SDS011;55959;51.244;5.724;2022-08-11T18:30:12;2.30;;;2.10;;
68921;SDS011;55959;51.244;5.724;2022-08-11T18:32:57;4.03;;;2.15;;
68921;SDS011;55959;51.244;5.724;2022-08-11T18:35:46;3.90;;;2.25;;
68921;SDS011;55959;51.244;5.724;2022-08-11T18:38:36;2.72;;;2.17;;
68921;SDS011;55959;51.244;5.724;2022-08-11T18:41:22;3.05;;;2.28;;
68921;SDS011;55959;51.244;5.724;2022-08-11T18:44:09;2.22;;;2.03;;
68921;SDS011;55959;51.244;5.724;2022-08-11T18:46:56;4.22;;;2.10;;
68921;SDS011;55959;51.244;5.724;2022-08-11T18:49:44;4.03;;;3.00;;
68921;SDS011;55959;51.244;5.724;2022-08-11T18:52:30;3.50;;;2.10;;
68921;SDS011;55959;51.244;5.724;2022-08-11T18:55:17;2.40;;;2.20;;
68921;SDS011;55959;51.244;5.724;2022-08-11T18:58:03;3.00;;;2.70;;
68921;SDS011;55959;51.244;5.724;2022-08-11T19:00:52;4.03;;;2.60;;
68921;SDS011;55959;51.244;5.724;2022-08-11T19:03:40;4.15;;;2.40;;
68921;SDS011;55959;51.244;5.724;2022-08-11T19:06:27;4.72;;;2.30;;
68921;SDS011;55959;51.244;5.724;2022-08-11T19:09:15;3.53;;;2.10;;
68921;SDS011;55959;51.244;5.724;2022-08-11T19:12:01;5.25;;;2.10;;
68921;SDS011;55959;51.244;5.724;2022-08-11T19:14:47;2.30;;;2.10;;
68921;SDS011;55959;51.244;5.724;2022-08-11T19:17:34;3.08;;;2.22;;
68921;SDS011;55959;51.244;5.724;2022-08-11T19:20:22;2.15;;;1.95;;
68921;SDS011;55959;51.244;5.724;2022-08-11T19:23:11;4.32;;;2.33;;
68921;SDS011;55959;51.244;5.724;2022-08-11T19:25:59;2.17;;;1.98;;
68921;SDS011;55959;51.244;5.724;2022-08-11T19:28:47;2.42;;;2.03;;
68921;SDS011;55959;51.244;5.724;2022-08-11T19:31:32;3.28;;;2.33;;
68921;SDS011;55959;51.244;5.724;2022-08-11T19:34:21;2.40;;;2.20;;
68921;SDS011;55959;51.244;5.724;2022-08-11T19:37:08;3.28;;;2.17;;
68921;SDS011;55959;51.244;5.724;2022-08-11T19:39:55;4.78;;;2.60;;